Time;durP1;ratioP1;P1;durP2;ratioP2;P2;SDS_P1;SDS_P2;PMS_P1;PMS_P2;Temp;Humidity;BMP_temperature;BMP_pressure;BME280_temperature;BME280_humidity;BME280_pressure;Samples;Min_cycle;Max_cycle;Signal;HPM_P1;HPM_P2
2022/12/05 00:08:50;;;;;;;21.27;13.75;;;;;;;2.59;84.31;95257.82;1816611;78;21497;-47
2022/12/05 00:11:21;;;;;;;21.20;13.70;;;;;;;2.59;84.13;95265.97;1795893;78;21239;-47
2022/12/05 00:13:50;;;;;;;13.75;10.98;;;;;;;2.57;84.51;95262.86;1795396;78;21172;-48
2022/12/05 00:16:19;;;;;;;14.43;10.78;;;;;;;2.67;84.80;95266.20;1794185;78;21124;-47
2022/12/05 00:18:46;;;;;;;11.60;10.38;;;;;;;2.74;84.58;95266.20;1795039;78;21056;-47
2022/12/05 00:21:18;;;;;;;10.48;9.43;;;;;;;2.79;84.59;95271.26;1790235;78;20938;-48
2022/12/05 00:23:46;;;;;;;12.60;9.73;;;;;;;2.86;84.69;95263.91;1802951;78;21239;-49
2022/12/05 00:26:13;;;;;;;10.80;9.10;;;;;;;2.97;84.43;95274.79;1787054;79;20985;-48
2022/12/05 00:28:39;;;;;;;12.50;10.08;;;;;;;3.04;84.00;95275.58;1788085;79;21049;-49
2022/12/05 00:31:09;;;;;;;10.43;9.03;;;;;;;3.07;83.65;95278.13;1803218;78;20969;-48
2022/12/05 00:33:36;;;;;;;15.18;10.50;;;;;;;3.04;83.31;95278.89;1782234;80;21541;-47
2022/12/05 00:36:10;;;;;;;14.95;11.12;;;;;;;3.00;83.52;95278.09;1797083;78;21795;-46
2022/12/05 00:38:37;;;;;;;19.37;10.78;;;;;;;3.03;83.52;95275.98;1678828;84;21024;-47
2022/12/05 00:41:05;;;;;;;15.40;11.28;;;;;;;3.02;83.62;95277.91;1654727;85;21019;-47
2022/12/05 00:43:32;;;;;;;16.55;12.65;;;;;;;3.07;83.58;95277.52;1666831;85;21003;-47
2022/12/05 00:46:03;;;;;;;15.90;12.55;;;;;;;3.10;83.76;95271.34;1674869;85;21051;-47
2022/12/05 00:48:30;;;;;;;18.62;12.30;;;;;;;3.18;83.52;95272.89;1674998;84;21227;-46
2022/12/05 00:51:10;;;;;;;18.07;12.20;;;;;;;3.22;83.68;95271.54;1689088;85;21097;-46
2022/12/05 00:53:37;;;;;;;19.92;13.80;;;;;;;3.28;83.47;95273.47;1607820;88;22631;-47
2022/12/05 00:56:06;;;;;;;24.72;16.70;;;;;;;3.31;83.20;95265.92;1592103;88;21625;-46
2022/12/05 00:58:33;;;;;;;24.02;15.50;;;;;;;3.29;82.88;95267.45;1605302;88;21156;-47
2022/12/05 01:01:10;;;;;;;23.70;14.83;;;;;;;3.29;83.19;95270.97;1598683;88;21119;-47
2022/12/05 01:03:37;;;;;;;24.47;16.25;;;;;;;3.39;83.17;95266.70;1609153;88;21029;-47
2022/12/05 01:06:07;;;;;;;22.40;14.87;;;;;;;3.36;82.56;95263.37;1590796;88;21002;-47
2022/12/05 01:08:34;;;;;;;17.57;13.25;;;;;;;3.34;82.99;95265.70;1604472;88;21949;-47
2022/12/05 01:11:01;;;;;;;15.68;11.78;;;;;;;3.40;83.14;95266.30;1588447;88;21185;-47
2022/12/05 01:13:29;;;;;;;14.73;11.50;;;;;;;3.47;82.46;95269.03;1598613;88;21387;-48
2022/12/05 01:15:56;;;;;;;17.42;11.43;;;;;;;3.36;81.76;95262.80;1632147;87;21634;-48
2022/12/05 01:18:23;;;;;;;14.70;10.48;;;;;;;3.22;81.54;95257.95;1635084;86;21005;-47
2022/12/05 01:20:49;;;;;;;12.98;9.78;;;;;;;3.08;81.68;95262.77;1634501;87;21611;-47
2022/12/05 01:23:16;;;;;;;13.05;9.40;;;;;;;2.98;81.90;95258.11;1642963;87;21042;-47
2022/12/05 01:25:46;;;;;;;12.10;8.88;;;;;;;2.93;81.92;95261.22;1635772;86;21139;-47
2022/12/05 01:28:13;;;;;;;12.23;9.20;;;;;;;2.86;81.97;95265.86;1633778;86;20986;-48
2022/12/05 01:30:41;;;;;;;13.00;9.83;;;;;;;2.79;82.11;95254.95;1628850;86;21028;-47
2022/12/05 01:33:08;;;;;;;11.80;9.93;;;;;;;2.77;82.37;95255.36;1643231;86;21142;-47
2022/12/05 01:35:37;;;;;;;13.95;10.68;;;;;;;2.76;82.39;95249.73;1643083;86;21176;-47
2022/12/05 01:38:04;;;;;;;15.15;10.60;;;;;;;2.76;82.45;95248.94;1644277;86;21805;-47
2022/12/05 01:40:31;;;;;;;16.45;12.18;;;;;;;2.73;82.53;95253.19;1630582;86;21493;-47
2022/12/05 01:42:58;;;;;;;13.88;10.30;;;;;;;2.67;82.69;95251.27;1630921;86;21256;-47
2022/12/05 01:45:40;;;;;;;12.98;10.78;;;;;;;2.64;83.13;95252.01;1632166;86;21057;-47
2022/12/05 01:48:17;;;;;;;10.98;9.20;;;;;;;2.67;83.26;95247.19;1646023;86;21533;-47
2022/12/05 01:50:44;;;;;;;9.55;8.40;;;;;;;2.72;83.48;95247.56;1665143;83;21139;-47
2022/12/05 01:53:10;;;;;;;8.88;7.97;;;;;;;2.76;83.21;95242.94;1716088;82;21019;-49
2022/12/05 01:55:38;;;;;;;8.80;7.90;;;;;;;2.74;82.83;95240.41;1718428;82;21496;-47
2022/12/05 01:58:05;;;;;;;8.88;7.33;;;;;;;2.62;82.78;95237.47;1734267;82;21128;-47
2022/12/05 04:06:34;;;;;;;17.77;12.95;;;;;;;1.24;84.60;95263.48;1810135;78;21074;-47
2022/12/05 04:09:10;;;;;;;22.55;13.72;;;;;;;1.26;84.37;95255.75;1808841;78;21236;-47
2022/12/05 04:11:41;;;;;;;14.45;11.35;;;;;;;1.28;84.25;95253.44;1813123;78;20994;-47
2022/12/05 04:14:12;;;;;;;15.80;12.07;;;;;;;1.29;84.13;95249.58;1805930;78;21080;-47
2022/12/05 04:17:04;;;;;;;14.95;11.63;;;;;;;1.31;84.14;95251.33;1819007;78;20958;-47
2022/12/05 04:22:38;;;;;;;9.73;8.65;;;;;;;1.47;84.00;95251.84;1801321;78;22050;-46
2022/12/05 04:28:35;;;;;;;17.07;10.60;;;;;;;1.48;83.63;95244.49;1725200;81;20963;-47
2022/12/05 04:31:18;;;;;;;12.13;8.63;;;;;;;1.50;83.43;95241.59;1786091;79;21475;-47
2022/12/05 04:33:53;;;;;;;9.08;8.18;;;;;;;1.58;83.44;95245.13;1788914;78;20954;-47
2022/12/05 04:36:56;;;;;;;9.38;7.95;;;;;;;1.60;82.96;95245.52;1818356;78;21235;-47
2022/12/05 04:39:31;;;;;;;10.72;9.55;;;;;;;1.57;82.64;95246.28;1797473;78;21034;-46
2022/12/05 04:42:04;;;;;;;10.38;9.03;;;;;;;1.55;82.58;95245.89;1790000;78;20954;-47
2022/12/05 04:44:50;;;;;;;10.28;8.15;;;;;;;1.57;82.41;95250.35;1753512;80;21011;-47
2022/12/05 06:06:15;;;;;;;67.82;33.58;;;;;;;1.24;82.90;95244.51;1839086;77;26319;-47
2022/12/05 06:08:43;;;;;;;49.73;28.73;;;;;;;1.19;82.95;95263.83;1811306;78;21029;-47
2022/12/05 06:11:12;;;;;;;51.98;30.85;;;;;;;1.22;83.10;95258.22;1769963;79;21155;-45
2022/12/05 06:13:40;;;;;;;47.67;29.18;;;;;;;1.29;83.12;95252.87;1765393;79;21482;-45
2022/12/05 06:16:08;;;;;;;55.75;34.98;;;;;;;1.37;83.22;95256.62;1793046;79;20994;-45
2022/12/05 06:18:35;;;;;;;58.70;38.48;;;;;;;1.49;83.05;95256.30;1813327;78;21508;-46
2022/12/05 06:21:04;;;;;;;47.80;26.00;;;;;;;1.55;82.80;95266.22;1794357;79;21619;-45
2022/12/05 06:23:31;;;;;;;38.17;24.40;;;;;;;1.63;82.51;95274.02;1795302;78;21182;-45
2022/12/05 06:25:58;;;;;;;41.28;25.48;;;;;;;1.61;82.10;95273.63;1798682;78;21036;-46
2022/12/05 06:28:25;;;;;;;37.80;22.58;;;;;;;1.65;82.39;95273.06;1803781;78;21497;-45
2022/12/05 06:30:52;;;;;;;34.65;21.23;;;;;;;1.70;82.08;95271.34;1817353;78;21089;-46
2022/12/05 06:33:19;;;;;;;30.08;18.92;;;;;;;1.74;81.95;95272.94;1779234;80;21550;-46
2022/12/05 06:35:45;;;;;;;30.43;18.85;;;;;;;1.81;81.79;95266.19;1805917;78;21090;-46
2022/12/05 06:38:12;;;;;;;28.55;17.62;;;;;;;1.79;81.33;95271.22;1766161;80;21053;-46
2022/12/05 06:40:43;;;;;;;30.82;20.95;;;;;;;1.73;81.27;95272.53;1729538;81;21014;-46
2022/12/05 06:43:10;;;;;;;33.35;21.30;;;;;;;1.71;81.58;95281.04;1667761;84;21054;-47
2022/12/05 06:45:38;;;;;;;52.43;28.07;;;;;;;1.72;81.68;95275.81;1700532;82;21494;-46
2022/12/05 06:48:05;;;;;;;48.00;28.70;;;;;;;1.72;81.71;95277.17;1674555;83;21326;-46
2022/12/05 06:50:33;;;;;;;40.10;26.42;;;;;;;1.74;81.75;95281.66;1662318;85;21027;-47
2022/12/05 06:53:00;;;;;;;46.25;27.67;;;;;;;1.79;81.78;95280.70;1724333;81;21199;-47
2022/12/05 06:55:26;;;;;;;49.45;30.02;;;;;;;1.79;81.46;95288.08;1707518;81;21041;-45
2022/12/05 06:57:53;;;;;;;47.58;31.70;;;;;;;1.78;81.75;95279.75;1716759;82;21071;-47
2022/12/05 07:03:06;;;;;;;35.80;23.52;;;;;;;1.90;81.60;95288.91;1678122;83;21079;-47
2022/12/05 07:05:34;;;;;;;45.23;26.70;;;;;;;1.91;81.65;95290.46;1675577;83;21711;-47
2022/12/05 07:08:00;;;;;;;40.60;25.70;;;;;;;1.96;81.40;95290.13;1702427;82;21062;-47
2022/12/05 07:10:27;;;;;;;121.62;59.10;;;;;;;1.93;81.23;95289.53;1719927;82;21095;-47
2022/12/05 07:12:55;;;;;;;102.20;51.95;;;;;;;1.96;81.26;95292.84;1690543;83;22196;-47
2022/12/05 07:15:22;;;;;;;83.27;47.88;;;;;;;1.99;81.21;95294.79;1665441;84;21136;-47
2022/12/05 07:17:49;;;;;;;49.65;29.98;;;;;;;2.06;81.26;95289.39;1674598;84;21486;-48
2022/12/05 07:20:16;;;;;;;46.13;31.25;;;;;;;2.10;81.07;95287.50;1685059;83;21065;-48
2022/12/05 07:22:44;;;;;;;34.13;24.35;;;;;;;2.14;81.12;95285.58;1680494;83;21672;-47
2022/12/05 07:25:11;;;;;;;30.02;19.73;;;;;;;2.19;80.87;95281.92;1691629;83;21844;-46
2022/12/05 07:27:38;;;;;;;31.82;19.82;;;;;;;2.20;80.83;95282.13;1671445;83;21103;-48
2022/12/05 07:30:07;;;;;;;39.83;22.55;;;;;;;2.22;80.75;95291.22;1661653;84;20982;-49
2022/12/05 07:32:35;;;;;;;32.28;20.55;;;;;;;2.21;80.80;95290.46;1670027;83;21095;-47
2022/12/05 07:35:05;;;;;;;95.50;42.83;;;;;;;2.25;80.77;95287.17;1670047;83;21104;-49
2022/12/05 07:37:32;;;;;;;129.10;60.03;;;;;;;2.27;80.78;95293.56;1682603;83;21838;-48
2022/12/05 07:39:59;;;;;;;73.45;40.10;;;;;;;2.33;80.78;95289.34;1691383;82;21034;-48
2022/12/05 07:42:26;;;;;;;68.67;39.50;;;;;;;2.41;80.71;95295.78;1680319;83;21168;-47
2022/12/05 07:44:53;;;;;;;71.87;42.05;;;;;;;2.52;80.33;95293.11;1730389;81;21636;-48
2022/12/05 07:47:20;;;;;;;71.50;38.33;;;;;;;2.61;80.45;95296.23;1768796;79;21570;-49
2022/12/05 07:49:48;;;;;;;64.95;36.42;;;;;;;2.76;80.18;95295.12;1762227;80;21547;-54
2022/12/05 07:52:14;;;;;;;58.08;34.05;;;;;;;2.87;79.65;95301.38;1763499;79;20973;-49
2022/12/05 07:54:42;;;;;;;58.05;33.60;;;;;;;2.87;79.42;95298.06;1790624;78;21126;-47
2022/12/05 07:57:09;;;;;;;70.65;41.20;;;;;;;2.91;79.28;95299.44;1785312;79;21065;-46
2022/12/05 07:59:36;;;;;;;65.25;37.67;;;;;;;2.94;79.14;95295.38;1792563;79;21149;-49
2022/12/05 08:02:04;;;;;;;59.00;36.58;;;;;;;3.01;79.07;95300.02;1764803;79;21421;-51
2022/12/05 08:04:31;;;;;;;76.12;43.87;;;;;;;3.07;78.99;95297.91;1755097;78;21156;-49
2022/12/05 08:06:58;;;;;;;27.75;18.90;;;;;;;3.13;78.80;95301.03;1790970;78;21080;-50
2022/12/05 08:09:26;;;;;;;55.52;26.10;;;;;;;3.22;79.39;95290.57;1789621;79;21068;-51
2022/12/05 08:11:53;;;;;;;43.83;26.45;;;;;;;3.36;79.58;95293.28;1784153;79;21072;-49
2022/12/05 08:14:21;;;;;;;47.00;27.60;;;;;;;3.51;79.43;95296.39;1772813;79;21089;-49
2022/12/05 08:16:48;;;;;;;33.25;19.10;;;;;;;3.58;79.06;95288.83;1744368;80;21557;-49
2022/12/05 08:19:16;;;;;;;28.92;20.40;;;;;;;3.63;79.21;95289.22;1736327;80;21161;-51
2022/12/05 08:21:43;;;;;;;27.45;18.85;;;;;;;3.71;78.90;95299.52;1738851;80;21017;-50
2022/12/05 08:24:11;;;;;;;32.42;21.90;;;;;;;3.69;78.62;95291.73;1729476;80;21564;-50
2022/12/05 08:26:38;;;;;;;45.50;28.55;;;;;;;3.65;78.58;95297.77;1690385;83;21254;-49
2022/12/05 08:29:11;;;;;;;38.73;24.43;;;;;;;3.70;78.56;95290.56;1769351;79;21064;-50
2022/12/05 08:31:46;;;;;;;17.90;13.65;;;;;;;3.72;78.13;95288.83;1775661;78;21549;-48
2022/12/05 08:34:15;;;;;;;17.27;13.28;;;;;;;3.71;78.23;95283.95;1675348;83;21100;-50
2022/12/05 08:36:44;;;;;;;17.60;13.43;;;;;;;3.67;77.76;95283.19;1646950;84;21065;-54
2022/12/05 08:39:14;;;;;;;26.57;19.32;;;;;;;3.54;77.60;95287.45;1675151;83;21209;-51
2022/12/05 08:41:43;;;;;;;25.72;18.77;;;;;;;3.45;78.14;95278.13;1619640;86;21100;-50
2022/12/05 08:44:10;;;;;;;26.30;18.52;;;;;;;3.49;78.13;95278.34;1619265;87;21143;-48
2022/12/05 08:46:37;;;;;;;32.90;17.73;;;;;;;3.44;77.89;95275.22;1607178;87;21105;-48
2022/12/05 08:49:04;;;;;;;27.07;18.67;;;;;;;3.43;77.93;95271.55;1614977;85;21083;-47
2022/12/05 08:51:32;;;;;;;44.58;27.90;;;;;;;3.42;78.15;95273.48;1629456;85;21157;-50
2022/12/05 08:54:02;;;;;;;51.42;33.60;;;;;;;3.48;78.21;95271.34;1619420;87;21160;-49
2022/12/05 08:56:28;;;;;;;45.43;28.07;;;;;;;3.55;78.06;95263.17;1619399;86;21100;-49
2022/12/05 08:58:55;;;;;;;32.15;22.10;;;;;;;3.65;78.23;95260.28;1613757;87;21219;-52
2022/12/05 09:01:29;;;;;;;33.80;21.65;;;;;;;3.75;77.92;95260.27;1605896;86;21624;-49
2022/12/05 09:03:52;;;;;;;27.45;18.95;;;;;;;3.77;77.69;95252.48;1608967;86;21309;-46
2022/12/05 09:06:22;;;;;;;29.15;20.65;;;;;;;3.78;77.66;95251.31;1603890;86;21171;-51
2022/12/05 09:08:51;;;;;;;81.53;42.98;;;;;;;3.84;77.51;95250.34;1616830;87;21061;-51
2022/12/05 09:11:20;;;;;;;48.08;30.68;;;;;;;3.90;77.45;95247.40;1607987;88;21058;-49
2022/12/05 09:13:49;;;;;;;28.67;19.57;;;;;;;3.94;77.47;95248.95;1595130;86;21099;-51
2022/12/05 09:16:21;;;;;;;28.17;17.92;;;;;;;3.94;77.13;95248.95;1599438;85;21699;-51
2022/12/05 09:18:49;;;;;;;34.53;22.30;;;;;;;3.91;77.14;95246.98;1613051;87;21229;-48
2022/12/05 09:21:23;;;;;;;27.37;18.07;;;;;;;3.97;77.40;95244.08;1616968;86;21633;-50
2022/12/05 09:23:50;;;;;;;33.28;20.55;;;;;;;4.11;77.65;95235.09;1638679;82;21573;-48
2022/12/05 09:26:21;;;;;;;35.28;22.17;;;;;;;4.27;77.52;95234.06;1691011;83;21125;-50
2022/12/05 09:28:48;;;;;;;24.45;17.60;;;;;;;4.41;77.26;95237.50;1677010;83;21230;-49
2022/12/05 09:31:21;;;;;;;26.37;17.70;;;;;;;4.50;77.16;95232.42;1700480;82;21207;-50
2022/12/05 09:33:50;;;;;;;39.58;21.75;;;;;;;4.55;76.90;95235.30;1698288;81;21600;-50
2022/12/05 09:36:25;;;;;;;25.40;18.27;;;;;;;4.65;76.84;95229.03;1709886;81;21030;-50
2022/12/05 09:38:53;;;;;;;22.25;18.17;;;;;;;4.84;76.70;95229.89;1707364;80;21104;-49
2022/12/05 09:48:20;;;;;;;35.05;21.62;;;;;;;5.16;74.96;95220.92;1816000;77;25998;-49
2022/12/05 09:50:59;;;;;;;30.00;20.37;;;;;;;5.27;74.69;95221.03;1767386;78;21089;-48
2022/12/05 09:53:33;;;;;;;25.12;19.30;;;;;;;5.41;74.24;95219.56;1786778;78;21604;-50
2022/12/05 09:56:26;;;;;;;33.20;21.80;;;;;;;5.52;73.54;95207.95;1782677;78;21050;-48
2022/12/05 09:58:57;;;;;;;98.42;44.40;;;;;;;5.66;73.36;95209.98;1771749;79;21054;-48
2022/12/05 10:01:47;;;;;;;31.80;18.87;;;;;;;5.91;72.53;95208.38;1761556;78;21243;-49
2022/12/05 10:04:49;;;;;;;20.27;15.60;;;;;;;5.92;71.58;95194.34;1783635;78;21127;-50
2022/12/05 10:07:48;;;;;;;19.45;14.28;;;;;;;5.87;71.69;95191.27;1777065;78;21268;-51
2022/12/05 10:10:46;;;;;;;25.75;17.85;;;;;;;5.96;71.36;95191.58;1784893;78;21065;-48
2022/12/05 10:13:22;;;;;;;26.02;17.05;;;;;;;5.96;71.42;95192.94;1776513;79;21082;-49
2022/12/05 10:15:54;;;;;;;21.93;16.62;;;;;;;6.13;71.25;95192.73;1781114;78;21016;-48
2022/12/05 10:18:42;;;;;;;22.42;16.23;;;;;;;6.26;70.43;95195.12;1742026;81;21226;-49
2022/12/05 10:21:31;;;;;;;55.20;25.32;;;;;;;6.44;70.51;95186.70;1741408;81;21081;-48
2022/12/05 10:24:04;;;;;;;28.23;19.02;;;;;;;6.86;70.11;95193.75;1721632;80;21224;-47
2022/12/05 10:26:39;;;;;;;15.90;12.63;;;;;;;7.36;68.73;95185.73;1687352;82;21137;-49
2022/12/05 10:29:33;;;;;;;16.75;12.13;;;;;;;7.84;67.28;95186.67;1646808;85;21215;-47
2022/12/05 10:32:19;;;;;;;17.87;12.73;;;;;;;8.12;65.69;95182.84;1600875;86;21312;-50
2022/12/05 10:34:46;;;;;;;15.78;11.80;;;;;;;8.28;65.02;95183.55;1591526;88;21579;-48
2022/12/05 10:37:19;;;;;;;15.65;11.28;;;;;;;8.44;64.54;95178.13;1642913;85;21165;-48
2022/12/05 10:39:49;;;;;;;15.48;11.85;;;;;;;8.64;63.75;95175.53;1581885;89;21144;-48
2022/12/05 10:42:30;;;;;;;17.65;13.35;;;;;;;8.88;63.68;95173.45;1588009;88;21145;-48
2022/12/05 10:45:01;;;;;;;16.25;12.65;;;;;;;9.24;62.58;95179.86;1571176;89;21101;-47
2022/12/05 10:47:30;;;;;;;15.32;12.28;;;;;;;9.63;61.33;95170.70;1539963;91;21941;-49
2022/12/05 10:50:01;;;;;;;16.90;12.65;;;;;;;10.07;60.21;95165.84;1536655;90;21112;-49
2022/12/05 10:52:30;;;;;;;17.70;11.75;;;;;;;10.40;59.08;95158.45;1533095;91;21695;-52
2022/12/05 10:55:01;;;;;;;18.90;13.72;;;;;;;10.60;58.57;95156.89;1514204;90;21163;-50
2022/12/05 10:57:31;;;;;;;27.13;13.90;;;;;;;10.98;57.46;95148.24;1568865;89;21254;-50
2022/12/05 11:00:12;;;;;;;29.30;16.87;;;;;;;11.18;56.39;95148.04;1581403;89;21269;-50
2022/12/05 11:02:39;;;;;;;19.75;14.15;;;;;;;11.42;56.19;95145.88;1558977;89;21066;-53
2022/12/05 11:05:07;;;;;;;18.95;10.85;;;;;;;11.55;55.10;95140.35;1563965;90;21062;-49
2022/12/05 11:07:49;;;;;;;12.47;10.55;;;;;;;11.56;54.94;95137.16;1544540;92;21180;-50
2022/12/05 11:10:39;;;;;;;15.00;12.30;;;;;;;11.60;54.41;95137.06;1520121;91;21256;-50
2022/12/05 11:13:34;;;;;;;17.05;11.70;;;;;;;11.42;54.86;95132.11;1517195;92;21636;-50
2022/12/05 11:16:06;;;;;;;14.58;11.35;;;;;;;11.50;54.81;95132.66;1525677;91;21125;-47
2022/12/05 11:18:47;;;;;;;33.53;18.67;;;;;;;11.63;54.64;95128.68;1494293;93;21120;-48
2022/12/05 11:21:36;;;;;;;17.17;12.37;;;;;;;11.89;53.98;95128.77;1504674;93;21793;-48
2022/12/05 11:24:32;;;;;;;21.97;13.98;;;;;;;12.22;53.43;95126.43;1557625;90;21170;-51
2022/12/05 11:27:19;;;;;;;19.27;13.13;;;;;;;12.86;52.58;95125.05;1626391;86;21348;-51
2022/12/05 11:30:18;;;;;;;17.85;13.20;;;;;;;13.73;50.60;95126.30;1593440;87;21723;-49
2022/12/05 11:32:45;;;;;;;20.68;14.03;;;;;;;14.36;49.09;95123.64;1560454;88;21133;-48
2022/12/05 11:35:25;;;;;;;32.83;21.80;;;;;;;14.95;47.95;95117.53;1551992;89;21098;-51
2022/12/05 11:38:02;;;;;;;47.13;31.57;;;;;;;15.41;46.89;95111.23;1560568;89;21446;-48
2022/12/05 11:40:56;;;;;;;48.02;27.25;;;;;;;16.00;45.25;95108.28;1576103;89;21231;-50
2022/12/05 11:43:46;;;;;;;20.90;12.20;;;;;;;16.33;44.19;95102.02;1559359;87;21658;-50
2022/12/05 11:46:30;;;;;;;14.38;10.08;;;;;;;16.55;43.00;95105.25;1625775;86;21105;-50
2022/12/05 11:49:23;;;;;;;44.55;28.92;;;;;;;16.67;42.65;95098.03;1638287;83;21052;-52
2022/12/05 11:52:13;;;;;;;21.25;16.00;;;;;;;17.06;42.59;95094.55;1704168;82;21084;-48
2022/12/05 11:55:00;;;;;;;19.48;12.03;;;;;;;17.36;41.84;95094.67;1753928;80;21301;-52
2022/12/05 11:57:50;;;;;;;17.98;13.15;;;;;;;17.65;40.90;95101.57;1664805;83;21657;-49
2022/12/05 12:00:48;;;;;;;16.55;11.50;;;;;;;17.89;39.91;95091.80;1727297;82;21145;-51
2022/12/05 12:03:36;;;;;;;41.08;13.22;;;;;;;17.67;39.67;95093.50;1722714;81;21999;-51
2022/12/05 12:06:26;;;;;;;17.42;11.25;;;;;;;17.48;40.52;95088.03;1692039;82;21112;-53
2022/12/05 12:09:21;;;;;;;18.23;12.05;;;;;;;17.71;40.03;95092.66;1660453;83;21149;-50
2022/12/05 12:12:18;;;;;;;17.27;13.43;;;;;;;17.44;39.63;95085.45;1719758;80;21041;-54
2022/12/05 12:15:13;;;;;;;19.35;14.23;;;;;;;17.37;40.42;95079.52;1697120;81;21199;-50
2022/12/05 12:18:09;;;;;;;14.50;10.88;;;;;;;17.93;40.16;95079.05;1745746;80;21159;-50
2022/12/05 12:21:01;;;;;;;16.80;13.62;;;;;;;17.87;39.32;95075.44;1693964;82;21636;-52
2022/12/05 12:23:37;;;;;;;20.97;12.82;;;;;;;16.72;40.12;95070.95;1699632;82;21219;-51
2022/12/05 12:26:13;;;;;;;20.95;11.38;;;;;;;15.26;42.57;95078.46;1688740;82;21291;-53
2022/12/05 12:29:10;;;;;;;17.92;11.63;;;;;;;14.17;44.45;95081.34;1722120;81;21097;-49
2022/12/05 12:32:21;;;;;;;15.83;10.95;;;;;;;13.17;46.27;95076.09;1746164;80;21133;-50
2022/12/05 12:35:18;;;;;;;18.85;12.55;;;;;;;12.17;48.57;95082.28;1745928;80;21037;-50
2022/12/05 12:38:06;;;;;;;29.10;17.45;;;;;;;11.44;50.32;95077.92;1779881;78;21263;-48
2022/12/05 12:40:56;;;;;;;50.12;27.45;;;;;;;10.93;51.77;95073.09;1777653;79;21080;-48
2022/12/05 12:43:35;;;;;;;47.25;25.68;;;;;;;10.54;53.10;95078.86;1765536;78;21540;-50
2022/12/05 12:46:26;;;;;;;52.83;28.55;;;;;;;10.16;54.22;95078.02;1753534;81;21093;-49
2022/12/05 12:49:23;;;;;;;51.95;25.45;;;;;;;9.86;55.03;95070.19;1694125;83;22211;-50
2022/12/05 12:51:57;;;;;;;63.30;30.27;;;;;;;9.55;55.77;95080.05;1689438;82;21964;-49
2022/12/05 12:54:49;;;;;;;64.95;38.28;;;;;;;9.06;57.04;95071.70;1678891;82;21045;-47
2022/12/05 12:57:56;;;;;;;137.37;91.45;;;;;;;8.68;58.44;95073.98;1685221;82;21081;-50
2022/12/05 13:00:44;;;;;;;97.55;65.60;;;;;;;8.29;59.75;95079.56;1656429;84;21107;-48
2022/12/05 13:03:18;;;;;;;86.35;53.83;;;;;;;7.86;61.06;95084.34;1691695;82;21108;-49
2022/12/05 13:05:50;;;;;;;66.53;42.65;;;;;;;7.61;62.66;95085.39;1636434;85;21705;-50
2022/12/05 13:08:33;;;;;;;41.10;25.50;;;;;;;7.60;63.40;95082.48;1520648;91;21440;-53
2022/12/05 13:11:05;;;;;;;34.23;22.95;;;;;;;7.56;63.57;95088.02;1485700;95;21129;-48
2022/12/05 13:13:40;;;;;;;43.78;27.58;;;;;;;7.40;64.22;95089.31;1476620;95;21125;-49
2022/12/05 13:16:08;;;;;;;32.80;23.20;;;;;;;7.24;64.70;95085.68;1446766;97;21234;-49
2022/12/05 13:18:37;;;;;;;31.30;20.52;;;;;;;7.12;65.46;95082.95;1430111;98;21379;-48
2022/12/05 13:21:07;;;;;;;33.98;20.02;;;;;;;7.07;66.15;95081.89;1449039;97;21022;-47
2022/12/05 13:23:50;;;;;;;33.33;23.00;;;;;;;7.13;66.77;95080.39;1467130;96;21114;-50
2022/12/05 13:26:17;;;;;;;43.02;29.92;;;;;;;7.28;66.90;95082.28;1468407;96;21397;-52
2022/12/05 13:28:51;;;;;;;45.03;30.40;;;;;;;7.42;67.00;95080.09;1483465;94;21072;-51
2022/12/05 13:31:18;;;;;;;50.33;35.80;;;;;;;7.50;66.69;95087.58;1510559;93;21466;-49
2022/12/05 13:33:49;;;;;;;37.85;24.27;;;;;;;7.51;66.75;95083.03;1494840;94;21125;-48
2022/12/05 13:42:14;;;;;;;78.20;43.13;;;;;;;7.44;66.34;95090.02;1520432;93;21146;-47
2022/12/05 13:44:44;;;;;;;68.95;40.67;;;;;;;7.12;66.70;95094.50;1522561;93;21301;-49
2022/12/05 13:47:43;;;;;;;62.15;38.83;;;;;;;6.94;67.49;95090.50;1512359;93;21209;-51
2022/12/05 13:50:34;;;;;;;114.88;69.40;;;;;;;6.88;68.22;95089.43;1508021;94;21177;-49
2022/12/05 13:53:06;;;;;;;71.97;47.55;;;;;;;6.84;68.37;95092.79;1489435;94;21140;-50
2022/12/05 13:55:38;;;;;;;69.10;43.38;;;;;;;6.82;68.52;95097.91;1485527;94;21143;-50
2022/12/05 13:58:33;;;;;;;;;;;;;;;6.79;68.49;95101.47;1492805;94;21974;-51
2022/12/05 14:01:41;;;;;;;101.82;54.42;;;;;;;6.73;68.72;95092.95;1492486;94;20336;-51
2022/12/05 14:04:25;;;;;;;94.92;59.83;;;;;;;6.67;68.84;95088.39;1466885;95;21166;-49
2022/12/05 14:06:57;;;;;;;93.25;56.95;;;;;;;6.58;69.02;95083.45;1489117;95;21576;-47
2022/12/05 14:09:29;;;;;;;89.83;54.67;;;;;;;6.55;69.35;95084.86;1434820;97;26714;-45
2022/12/05 14:12:16;;;;;;;88.33;53.58;;;;;;;6.59;69.60;95093.19;1461103;95;21194;-47
2022/12/05 14:15:06;;;;;;;82.97;50.40;;;;;;;6.61;69.45;95094.13;1483345;91;21192;-47
2022/12/05 14:17:41;;;;;;;79.50;48.20;;;;;;;6.53;69.49;95098.92;1531729;89;21654;-50
2022/12/05 14:20:43;;;;;;;86.90;52.17;;;;;;;6.46;69.71;95100.98;1573063;88;21156;-50
2022/12/05 14:23:41;;;;;;;78.05;51.42;;;;;;;6.42;70.10;95103.78;1617990;87;21186;-49
2022/12/05 14:26:33;;;;;;;75.52;46.37;;;;;;;6.39;70.25;95107.92;1613304;87;21162;-51
2022/12/05 14:29:30;;;;;;;78.93;50.37;;;;;;;6.35;70.20;95105.83;1601884;87;21117;-50
2022/12/05 14:32:04;;;;;;;105.07;64.87;;;;;;;6.33;70.19;95098.03;1573769;88;21664;-51
2022/12/05 14:34:35;;;;;;;122.67;73.40;;;;;;;6.33;70.08;95104.86;1590366;87;22722;-48
2022/12/05 14:37:19;;;;;;;127.55;78.65;;;;;;;6.29;70.17;95108.24;1586905;88;21735;-49
2022/12/05 14:39:51;;;;;;;111.10;69.00;;;;;;;6.20;70.01;95107.20;1584222;87;21183;-50
2022/12/05 14:42:25;;;;;;;123.33;73.42;;;;;;;6.06;70.43;95106.01;1579033;89;21132;-47
2022/12/05 14:44:57;;;;;;;110.15;63.60;;;;;;;5.95;70.76;95108.11;1550446;90;22108;-49
2022/12/05 14:47:32;;;;;;;102.58;58.85;;;;;;;5.88;71.14;95107.60;1537079;91;21100;-51
2022/12/05 14:50:23;;;;;;;142.90;78.70;;;;;;;5.81;71.74;95104.94;1558461;90;21138;-49
2022/12/05 14:53:21;;;;;;;118.13;66.28;;;;;;;5.81;71.82;95116.46;1549693;90;21388;-51
2022/12/05 14:55:55;;;;;;;112.12;65.37;;;;;;;5.78;71.77;95107.70;1577520;88;21202;-49
2022/12/05 14:58:50;;;;;;;121.35;68.33;;;;;;;5.71;72.23;95110.48;1539629;89;21106;-52
2022/12/05 15:01:43;;;;;;;110.75;64.95;;;;;;;5.74;72.26;95116.49;1516326;91;21712;-51
2022/12/05 15:04:33;;;;;;;111.77;63.90;;;;;;;5.75;72.15;95115.34;1522140;93;21820;-48
2022/12/05 15:07:09;;;;;;;153.10;84.97;;;;;;;5.70;72.05;95110.30;1552329;90;21203;-50
2022/12/05 15:10:06;;;;;;;126.18;74.12;;;;;;;5.62;72.04;95103.39;1546231;90;21774;-49
2022/12/05 15:12:46;;;;;;;119.00;62.20;;;;;;;5.52;72.16;95100.95;1566819;90;21577;-50
2022/12/05 15:18:46;;;;;;;96.25;57.25;;;;;;;5.23;72.95;95101.05;1536407;90;21098;-48
2022/12/05 15:21:42;;;;;;;105.12;60.50;;;;;;;5.15;73.45;95097.42;1549498;90;21199;-48
2022/12/05 15:24:15;;;;;;;90.85;52.50;;;;;;;5.04;73.75;95102.22;1552222;89;21192;-48
2022/12/05 15:26:57;;;;;;;100.20;55.10;;;;;;;4.99;74.25;95100.50;1583909;88;21144;-50
2022/12/05 15:29:31;;;;;;;102.92;59.83;;;;;;;4.94;74.56;95100.34;1561188;90;21152;-48
2022/12/05 15:32:15;;;;;;;93.45;58.85;;;;;;;4.93;74.87;95098.03;1574199;89;21066;-50
2022/12/05 15:35:03;;;;;;;102.72;62.98;;;;;;;4.94;74.93;95096.86;1543554;91;21284;-49
2022/12/05 15:37:36;;;;;;;109.17;64.72;;;;;;;4.87;74.89;95096.32;1558807;90;21135;-50
2022/12/05 15:40:12;;;;;;;119.93;70.25;;;;;;;4.79;75.21;95092.09;1601371;87;21076;-50
2022/12/05 15:42:47;;;;;;;144.02;84.37;;;;;;;4.80;75.55;95094.23;1585020;88;21254;-49
2022/12/05 15:45:20;;;;;;;145.62;89.17;;;;;;;4.83;75.84;95093.43;1612039;87;21807;-51
2022/12/05 15:47:56;;;;;;;149.35;89.10;;;;;;;4.83;75.87;95094.80;1594427;86;22011;-49
2022/12/05 15:50:48;;;;;;;131.90;79.60;;;;;;;4.84;76.20;95093.62;1613981;85;21108;-48
2022/12/05 15:53:45;;;;;;;110.22;68.02;;;;;;;4.90;76.52;95085.19;1597641;87;21289;-49
2022/12/05 15:56:22;;;;;;;112.12;69.07;;;;;;;4.91;76.16;95092.97;1602707;88;21562;-47
2022/12/05 15:58:54;;;;;;;113.50;67.15;;;;;;;4.85;76.22;95086.41;1565193;90;21286;-50
2022/12/05 22:06:33;;;;;;;234.80;102.45;;;;;;;3.23;92.91;94961.84;1768327;80;21584;-45